sensor_id;sensor_type;location;lat;lon;timestamp;P1;durP1;ratioP1;P2;durP2;ratioP2
3712;SDS011;1872;51.406;6.856;2024-02-21T00:02:12;15.50;;;10.17;;
3712;SDS011;1872;51.406;6.856;2024-02-21T00:04:37;18.07;;;9.60;;
3712;SDS011;1872;51.406;6.856;2024-02-21T00:07:03;19.67;;;11.33;;
3712;SDS011;1872;51.406;6.856;2024-02-21T00:09:30;22.73;;;10.90;;
3712;SDS011;1872;51.406;6.856;2024-02-21T00:11:55;17.20;;;10.30;;
3712;SDS011;1872;51.406;6.856;2024-02-21T00:14:21;22.13;;;10.30;;
3712;SDS011;1872;51.406;6.856;2024-02-21T00:16:47;20.27;;;10.50;;
3712;SDS011;1872;51.406;6.856;2024-02-21T00:19:13;17.80;;;9.97;;
3712;SDS011;1872;51.406;6.856;2024-02-21T00:21:39;16.97;;;9.97;;
3712;SDS011;1872;51.406;6.856;2024-02-21T00:24:05;18.33;;;12.17;;
3712;SDS011;1872;51.406;6.856;2024-02-21T00:26:31;21.33;;;11.33;;
3712;SDS011;1872;51.406;6.856;2024-02-21T00:28:57;19.90;;;12.57;;
3712;SDS011;1872;51.406;6.856;2024-02-21T00:31:23;22.00;;;10.90;;
3712;SDS011;1872;51.406;6.856;2024-02-21T00:33:48;23.10;;;11.07;;
3712;SDS011;1872;51.406;6.856;2024-02-21T00:36:15;22.90;;;10.83;;
3712;SDS011;1872;51.406;6.856;2024-02-21T00:38:41;17.80;;;11.00;;
3712;SDS011;1872;51.406;6.856;2024-02-21T00:41:07;17.33;;;10.47;;
3712;SDS011;1872;51.406;6.856;2024-02-21T00:43:32;19.67;;;10.87;;
3712;SDS011;1872;51.406;6.856;2024-02-21T00:45:58;17.80;;;10.90;;
3712;SDS011;1872;51.406;6.856;2024-02-21T00:48:24;26.67;;;12.77;;
3712;SDS011;1872;51.406;6.856;2024-02-21T00:50:50;20.27;;;10.97;;
3712;SDS011;1872;51.406;6.856;2024-02-21T00:53:15;19.13;;;10.27;;
3712;SDS011;1872;51.406;6.856;2024-02-21T00:55:41;19.30;;;11.60;;
3712;SDS011;1872;51.406;6.856;2024-02-21T00:58:08;19.83;;;10.60;;
3712;SDS011;1872;51.406;6.856;2024-02-21T01:00:34;19.10;;;11.30;;
3712;SDS011;1872;51.406;6.856;2024-02-21T01:03:00;17.17;;;10.50;;
3712;SDS011;1872;51.406;6.856;2024-02-21T01:05:25;17.07;;;9.73;;
3712;SDS011;1872;51.406;6.856;2024-02-21T01:07:53;17.27;;;10.40;;
3712;SDS011;1872;51.406;6.856;2024-02-21T01:10:19;15.33;;;9.90;;
3712;SDS011;1872;51.406;6.856;2024-02-21T01:12:44;17.53;;;10.20;;
3712;SDS011;1872;51.406;6.856;2024-02-21T01:15:10;19.17;;;10.50;;
3712;SDS011;1872;51.406;6.856;2024-02-21T01:17:37;20.30;;;10.80;;
3712;SDS011;1872;51.406;6.856;2024-02-21T01:20:03;21.17;;;10.67;;
3712;SDS011;1872;51.406;6.856;2024-02-21T01:22:30;18.57;;;11.33;;
3712;SDS011;1872;51.406;6.856;2024-02-21T01:24:56;17.17;;;11.07;;
3712;SDS011;1872;51.406;6.856;2024-02-21T01:27:22;18.57;;;10.43;;
3712;SDS011;1872;51.406;6.856;2024-02-21T01:29:47;17.20;;;10.60;;
3712;SDS011;1872;51.406;6.856;2024-02-21T01:32:14;24.77;;;11.90;;
3712;SDS011;1872;51.406;6.856;2024-02-21T01:34:40;20.77;;;10.43;;
3712;SDS011;1872;51.406;6.856;2024-02-21T01:37:06;20.27;;;10.43;;
3712;SDS011;1872;51.406;6.856;2024-02-21T01:39:33;21.50;;;11.30;;
3712;SDS011;1872;51.406;6.856;2024-02-21T01:41:59;19.03;;;10.70;;
3712;SDS011;1872;51.406;6.856;2024-02-21T01:44:25;19.47;;;10.60;;
3712;SDS011;1872;51.406;6.856;2024-02-21T01:46:51;18.70;;;11.20;;
3712;SDS011;1872;51.406;6.856;2024-02-21T01:49:18;19.07;;;10.70;;
3712;SDS011;1872;51.406;6.856;2024-02-21T01:51:45;20.27;;;10.93;;
3712;SDS011;1872;51.406;6.856;2024-02-21T01:54:11;18.20;;;10.70;;
3712;SDS011;1872;51.406;6.856;2024-02-21T01:56:39;21.03;;;11.83;;
3712;SDS011;1872;51.406;6.856;2024-02-21T01:59:05;22.17;;;11.30;;
3712;SDS011;1872;51.406;6.856;2024-02-21T02:01:31;19.10;;;11.27;;
3712;SDS011;1872;51.406;6.856;2024-02-21T02:03:56;14.47;;;10.63;;
3712;SDS011;1872;51.406;6.856;2024-02-21T02:06:24;17.23;;;10.87;;
3712;SDS011;1872;51.406;6.856;2024-02-21T02:08:50;20.37;;;10.00;;
3712;SDS011;1872;51.406;6.856;2024-02-21T02:11:16;18.47;;;11.23;;
3712;SDS011;1872;51.406;6.856;2024-02-21T02:13:42;20.07;;;10.30;;
3712;SDS011;1872;51.406;6.856;2024-02-21T02:16:08;22.70;;;11.00;;
3712;SDS011;1872;51.406;6.856;2024-02-21T02:18:34;17.60;;;10.10;;
3712;SDS011;1872;51.406;6.856;2024-02-21T02:20:59;19.07;;;10.63;;
3712;SDS011;1872;51.406;6.856;2024-02-21T02:23:25;22.80;;;10.67;;
3712;SDS011;1872;51.406;6.856;2024-02-21T02:25:54;22.50;;;9.90;;
3712;SDS011;1872;51.406;6.856;2024-02-21T02:28:19;16.77;;;9.13;;
3712;SDS011;1872;51.406;6.856;2024-02-21T02:30:46;21.30;;;10.30;;
3712;SDS011;1872;51.406;6.856;2024-02-21T02:33:12;17.57;;;9.83;;
3712;SDS011;1872;51.406;6.856;2024-02-21T02:35:38;15.13;;;9.27;;
3712;SDS011;1872;51.406;6.856;2024-02-21T02:38:04;19.90;;;10.50;;
3712;SDS011;1872;51.406;6.856;2024-02-21T02:40:30;16.47;;;10.70;;
3712;SDS011;1872;51.406;6.856;2024-02-21T02:42:56;15.57;;;9.10;;
3712;SDS011;1872;51.406;6.856;2024-02-21T02:45:22;19.90;;;9.90;;
3712;SDS011;1872;51.406;6.856;2024-02-21T02:47:52;15.87;;;8.40;;
3712;SDS011;1872;51.406;6.856;2024-02-21T02:50:22;23.40;;;11.03;;
3712;SDS011;1872;51.406;6.856;2024-02-21T02:52:48;19.03;;;9.87;;
3712;SDS011;1872;51.406;6.856;2024-02-21T02:55:14;17.80;;;9.03;;
3712;SDS011;1872;51.406;6.856;2024-02-21T02:57:40;19.97;;;9.67;;
3712;SDS011;1872;51.406;6.856;2024-02-21T03:00:12;18.33;;;9.80;;
3712;SDS011;1872;51.406;6.856;2024-02-21T03:02:39;15.00;;;10.33;;
3712;SDS011;1872;51.406;6.856;2024-02-21T03:05:19;17.57;;;8.80;;
3712;SDS011;1872;51.406;6.856;2024-02-21T03:07:46;23.70;;;11.00;;
3712;SDS011;1872;51.406;6.856;2024-02-21T03:10:12;20.73;;;10.40;;
3712;SDS011;1872;51.406;6.856;2024-02-21T03:12:39;20.00;;;11.07;;
3712;SDS011;1872;51.406;6.856;2024-02-21T03:15:06;16.90;;;9.43;;
3712;SDS011;1872;51.406;6.856;2024-02-21T03:17:32;15.70;;;9.53;;
3712;SDS011;1872;51.406;6.856;2024-02-21T03:19:59;15.27;;;9.10;;
3712;SDS011;1872;51.406;6.856;2024-02-21T03:22:25;18.47;;;10.10;;
3712;SDS011;1872;51.406;6.856;2024-02-21T03:24:51;18.93;;;9.23;;
3712;SDS011;1872;51.406;6.856;2024-02-21T03:27:17;16.73;;;9.00;;
3712;SDS011;1872;51.406;6.856;2024-02-21T03:29:43;22.47;;;10.07;;
3712;SDS011;1872;51.406;6.856;2024-02-21T03:32:08;18.90;;;9.93;;
3712;SDS011;1872;51.406;6.856;2024-02-21T03:34:34;20.57;;;10.20;;
3712;SDS011;1872;51.406;6.856;2024-02-21T03:37:00;18.20;;;9.10;;
3712;SDS011;1872;51.406;6.856;2024-02-21T03:39:26;15.00;;;9.00;;
3712;SDS011;1872;51.406;6.856;2024-02-21T03:41:52;17.17;;;9.60;;
3712;SDS011;1872;51.406;6.856;2024-02-21T03:44:18;16.37;;;9.20;;
3712;SDS011;1872;51.406;6.856;2024-02-21T03:46:44;18.33;;;10.20;;
3712;SDS011;1872;51.406;6.856;2024-02-21T03:49:10;18.93;;;9.37;;
3712;SDS011;1872;51.406;6.856;2024-02-21T03:51:36;18.23;;;9.13;;
3712;SDS011;1872;51.406;6.856;2024-02-21T03:54:02;17.33;;;9.43;;
3712;SDS011;1872;51.406;6.856;2024-02-21T03:56:28;16.93;;;9.50;;
3712;SDS011;1872;51.406;6.856;2024-02-21T03:58:54;15.70;;;8.83;;
3712;SDS011;1872;51.406;6.856;2024-02-21T04:01:20;17.63;;;10.33;;
3712;SDS011;1872;51.406;6.856;2024-02-21T04:03:46;15.40;;;9.20;;
3712;SDS011;1872;51.406;6.856;2024-02-21T04:06:11;21.63;;;9.53;;
3712;SDS011;1872;51.406;6.856;2024-02-21T04:08:37;14.67;;;8.77;;
3712;SDS011;1872;51.406;6.856;2024-02-21T04:11:03;16.93;;;9.83;;
3712;SDS011;1872;51.406;6.856;2024-02-21T04:13:29;14.33;;;9.07;;
3712;SDS011;1872;51.406;6.856;2024-02-21T04:15:55;17.97;;;9.03;;
3712;SDS011;1872;51.406;6.856;2024-02-21T04:18:22;22.50;;;9.20;;
3712;SDS011;1872;51.406;6.856;2024-02-21T04:20:47;19.40;;;9.07;;
3712;SDS011;1872;51.406;6.856;2024-02-21T04:23:13;13.30;;;8.97;;
3712;SDS011;1872;51.406;6.856;2024-02-21T04:25:39;21.00;;;12.50;;
3712;SDS011;1872;51.406;6.856;2024-02-21T04:28:05;14.63;;;8.87;;
3712;SDS011;1872;51.406;6.856;2024-02-21T04:30:30;13.60;;;9.20;;
3712;SDS011;1872;51.406;6.856;2024-02-21T04:32:56;17.00;;;8.30;;
3712;SDS011;1872;51.406;6.856;2024-02-21T04:35:22;16.97;;;9.90;;
3712;SDS011;1872;51.406;6.856;2024-02-21T04:37:48;13.47;;;8.20;;
3712;SDS011;1872;51.406;6.856;2024-02-21T04:40:14;12.23;;;7.90;;
3712;SDS011;1872;51.406;6.856;2024-02-21T04:42:41;10.63;;;8.03;;
3712;SDS011;1872;51.406;6.856;2024-02-21T04:45:07;13.30;;;8.37;;
3712;SDS011;1872;51.406;6.856;2024-02-21T04:47:34;16.63;;;8.53;;
3712;SDS011;1872;51.406;6.856;2024-02-21T04:49:59;18.57;;;9.10;;
3712;SDS011;1872;51.406;6.856;2024-02-21T04:52:25;15.70;;;8.70;;
3712;SDS011;1872;51.406;6.856;2024-02-21T04:54:51;17.37;;;8.43;;
3712;SDS011;1872;51.406;6.856;2024-02-21T04:57:17;15.07;;;8.33;;
3712;SDS011;1872;51.406;6.856;2024-02-21T04:59:45;19.50;;;7.70;;
3712;SDS011;1872;51.406;6.856;2024-02-21T05:02:13;14.40;;;8.93;;
3712;SDS011;1872;51.406;6.856;2024-02-21T05:04:39;14.27;;;7.23;;
3712;SDS011;1872;51.406;6.856;2024-02-21T05:07:06;14.53;;;8.00;;
3712;SDS011;1872;51.406;6.856;2024-02-21T05:09:32;13.83;;;7.50;;
3712;SDS011;1872;51.406;6.856;2024-02-21T05:11:58;12.57;;;8.30;;
3712;SDS011;1872;51.406;6.856;2024-02-21T05:14:26;16.50;;;8.63;;
3712;SDS011;1872;51.406;6.856;2024-02-21T05:16:52;17.37;;;7.43;;
3712;SDS011;1872;51.406;6.856;2024-02-21T05:19:19;12.10;;;8.47;;
3712;SDS011;1872;51.406;6.856;2024-02-21T05:21:44;15.07;;;8.20;;
3712;SDS011;1872;51.406;6.856;2024-02-21T05:24:10;11.90;;;8.30;;
3712;SDS011;1872;51.406;6.856;2024-02-21T05:26:37;13.80;;;9.53;;
3712;SDS011;1872;51.406;6.856;2024-02-21T05:29:02;12.97;;;8.30;;
3712;SDS011;1872;51.406;6.856;2024-02-21T05:31:42;11.63;;;7.90;;
3712;SDS011;1872;51.406;6.856;2024-02-21T05:34:18;13.30;;;7.70;;
3712;SDS011;1872;51.406;6.856;2024-02-21T05:36:45;13.10;;;8.17;;
3712;SDS011;1872;51.406;6.856;2024-02-21T05:39:11;15.63;;;7.80;;
3712;SDS011;1872;51.406;6.856;2024-02-21T05:41:38;12.23;;;7.47;;
3712;SDS011;1872;51.406;6.856;2024-02-21T05:44:03;15.07;;;8.03;;
3712;SDS011;1872;51.406;6.856;2024-02-21T05:46:29;10.20;;;7.30;;
3712;SDS011;1872;51.406;6.856;2024-02-21T05:48:55;10.87;;;7.70;;
3712;SDS011;1872;51.406;6.856;2024-02-21T05:51:20;12.20;;;7.80;;
3712;SDS011;1872;51.406;6.856;2024-02-21T05:53:46;12.70;;;7.57;;
3712;SDS011;1872;51.406;6.856;2024-02-21T05:56:12;14.53;;;7.50;;
3712;SDS011;1872;51.406;6.856;2024-02-21T05:58:39;13.80;;;7.77;;
3712;SDS011;1872;51.406;6.856;2024-02-21T06:01:05;10.90;;;6.90;;
3712;SDS011;1872;51.406;6.856;2024-02-21T06:03:35;12.70;;;6.70;;
3712;SDS011;1872;51.406;6.856;2024-02-21T06:06:02;13.67;;;7.33;;
3712;SDS011;1872;51.406;6.856;2024-02-21T06:08:29;10.70;;;6.90;;
3712;SDS011;1872;51.406;6.856;2024-02-21T06:10:55;14.40;;;7.97;;
3712;SDS011;1872;51.406;6.856;2024-02-21T06:13:21;12.53;;;7.70;;
3712;SDS011;1872;51.406;6.856;2024-02-21T06:15:48;11.00;;;7.90;;
3712;SDS011;1872;51.406;6.856;2024-02-21T06:18:15;12.73;;;8.17;;
3712;SDS011;1872;51.406;6.856;2024-02-21T06:20:44;19.20;;;8.30;;
3712;SDS011;1872;51.406;6.856;2024-02-21T06:23:11;8.93;;;6.73;;
3712;SDS011;1872;51.406;6.856;2024-02-21T06:25:43;10.50;;;6.73;;
3712;SDS011;1872;51.406;6.856;2024-02-21T06:28:08;10.13;;;7.20;;
3712;SDS011;1872;51.406;6.856;2024-02-21T06:30:35;11.43;;;6.60;;
3712;SDS011;1872;51.406;6.856;2024-02-21T06:33:01;10.40;;;7.60;;
3712;SDS011;1872;51.406;6.856;2024-02-21T06:35:27;12.97;;;6.63;;
3712;SDS011;1872;51.406;6.856;2024-02-21T06:37:53;12.30;;;6.77;;
3712;SDS011;1872;51.406;6.856;2024-02-21T06:40:23;14.33;;;7.00;;
3712;SDS011;1872;51.406;6.856;2024-02-21T06:42:49;18.53;;;7.63;;
3712;SDS011;1872;51.406;6.856;2024-02-21T06:45:15;9.70;;;6.90;;
3712;SDS011;1872;51.406;6.856;2024-02-21T06:47:42;13.13;;;7.37;;
3712;SDS011;1872;51.406;6.856;2024-02-21T06:50:08;11.07;;;7.23;;
3712;SDS011;1872;51.406;6.856;2024-02-21T06:52:34;9.10;;;6.30;;
3712;SDS011;1872;51.406;6.856;2024-02-21T06:55:03;9.20;;;6.17;;
3712;SDS011;1872;51.406;6.856;2024-02-21T06:57:30;10.30;;;6.60;;
3712;SDS011;1872;51.406;6.856;2024-02-21T06:59:55;9.63;;;6.30;;
3712;SDS011;1872;51.406;6.856;2024-02-21T07:02:22;10.00;;;6.00;;
3712;SDS011;1872;51.406;6.856;2024-02-21T07:04:48;8.77;;;6.43;;
3712;SDS011;1872;51.406;6.856;2024-02-21T07:07:14;11.90;;;7.40;;
3712;SDS011;1872;51.406;6.856;2024-02-21T07:09:40;11.70;;;5.90;;
3712;SDS011;1872;51.406;6.856;2024-02-21T07:12:06;12.57;;;6.70;;
3712;SDS011;1872;51.406;6.856;2024-02-21T07:14:32;11.93;;;6.70;;
3712;SDS011;1872;51.406;6.856;2024-02-21T07:16:58;10.57;;;6.75;;
3712;SDS011;1872;51.406;6.856;2024-02-21T07:19:24;11.27;;;7.30;;
3712;SDS011;1872;51.406;6.856;2024-02-21T07:21:50;13.27;;;6.93;;
3712;SDS011;1872;51.406;6.856;2024-02-21T07:24:16;10.00;;;7.00;;
3712;SDS011;1872;51.406;6.856;2024-02-21T07:26:41;11.50;;;7.20;;
3712;SDS011;1872;51.406;6.856;2024-02-21T07:29:10;11.50;;;6.50;;
3712;SDS011;1872;51.406;6.856;2024-02-21T07:31:42;13.13;;;6.80;;
3712;SDS011;1872;51.406;6.856;2024-02-21T07:34:09;16.87;;;6.43;;
3712;SDS011;1872;51.406;6.856;2024-02-21T07:36:35;11.03;;;6.10;;
3712;SDS011;1872;51.406;6.856;2024-02-21T07:39:02;11.60;;;6.63;;
3712;SDS011;1872;51.406;6.856;2024-02-21T07:41:28;11.10;;;6.10;;
3712;SDS011;1872;51.406;6.856;2024-02-21T07:43:55;8.57;;;6.53;;
3712;SDS011;1872;51.406;6.856;2024-02-21T07:46:21;6.40;;;5.73;;
3712;SDS011;1872;51.406;6.856;2024-02-21T07:48:47;10.20;;;6.43;;
3712;SDS011;1872;51.406;6.856;2024-02-21T07:51:13;11.43;;;5.97;;
3712;SDS011;1872;51.406;6.856;2024-02-21T07:53:41;10.10;;;6.07;;
3712;SDS011;1872;51.406;6.856;2024-02-21T07:56:13;11.90;;;6.27;;
3712;SDS011;1872;51.406;6.856;2024-02-21T07:58:41;8.77;;;5.33;;
3712;SDS011;1872;51.406;6.856;2024-02-21T08:01:08;6.67;;;4.97;;
3712;SDS011;1872;51.406;6.856;2024-02-21T08:03:35;8.67;;;5.17;;
3712;SDS011;1872;51.406;6.856;2024-02-21T08:06:02;13.00;;;5.80;;
3712;SDS011;1872;51.406;6.856;2024-02-21T08:08:29;10.60;;;5.47;;
3712;SDS011;1872;51.406;6.856;2024-02-21T08:10:55;7.10;;;5.73;;
3712;SDS011;1872;51.406;6.856;2024-02-21T08:13:20;8.70;;;5.73;;
3712;SDS011;1872;51.406;6.856;2024-02-21T08:15:46;7.20;;;5.40;;
3712;SDS011;1872;51.406;6.856;2024-02-21T08:18:12;7.63;;;4.70;;
3712;SDS011;1872;51.406;6.856;2024-02-21T08:20:37;7.03;;;6.40;;
3712;SDS011;1872;51.406;6.856;2024-02-21T08:23:03;9.60;;;5.53;;
3712;SDS011;1872;51.406;6.856;2024-02-21T08:25:29;8.50;;;5.63;;
3712;SDS011;1872;51.406;6.856;2024-02-21T08:27:58;11.67;;;6.73;;
3712;SDS011;1872;51.406;6.856;2024-02-21T08:30:24;6.67;;;5.37;;
3712;SDS011;1872;51.406;6.856;2024-02-21T08:32:50;8.97;;;6.07;;
3712;SDS011;1872;51.406;6.856;2024-02-21T08:35:16;8.30;;;5.63;;
3712;SDS011;1872;51.406;6.856;2024-02-21T08:37:45;10.27;;;6.20;;
3712;SDS011;1872;51.406;6.856;2024-02-21T08:40:13;15.47;;;7.83;;
3712;SDS011;1872;51.406;6.856;2024-02-21T08:42:42;8.93;;;5.13;;
3712;SDS011;1872;51.406;6.856;2024-02-21T08:45:08;9.23;;;5.33;;
3712;SDS011;1872;51.406;6.856;2024-02-21T08:47:34;7.80;;;5.37;;
3712;SDS011;1872;51.406;6.856;2024-02-21T08:50:01;10.43;;;5.37;;
3712;SDS011;1872;51.406;6.856;2024-02-21T08:52:27;9.13;;;5.53;;
3712;SDS011;1872;51.406;6.856;2024-02-21T08:54:53;10.50;;;5.57;;
3712;SDS011;1872;51.406;6.856;2024-02-21T08:57:19;7.83;;;5.80;;
3712;SDS011;1872;51.406;6.856;2024-02-21T08:59:45;10.13;;;5.70;;
3712;SDS011;1872;51.406;6.856;2024-02-21T09:02:12;9.63;;;6.00;;
3712;SDS011;1872;51.406;6.856;2024-02-21T09:04:38;7.50;;;5.27;;
3712;SDS011;1872;51.406;6.856;2024-02-21T09:07:04;9.33;;;5.53;;
3712;SDS011;1872;51.406;6.856;2024-02-21T09:09:29;10.60;;;5.00;;
3712;SDS011;1872;51.406;6.856;2024-02-21T09:11:56;8.93;;;5.40;;
3712;SDS011;1872;51.406;6.856;2024-02-21T09:14:22;8.27;;;4.97;;
3712;SDS011;1872;51.406;6.856;2024-02-21T09:16:48;6.70;;;5.33;;
3712;SDS011;1872;51.406;6.856;2024-02-21T09:19:13;9.43;;;4.63;;
3712;SDS011;1872;51.406;6.856;2024-02-21T09:21:39;6.97;;;4.93;;
3712;SDS011;1872;51.406;6.856;2024-02-21T09:24:05;5.23;;;4.40;;
3712;SDS011;1872;51.406;6.856;2024-02-21T09:26:31;5.90;;;4.20;;
3712;SDS011;1872;51.406;6.856;2024-02-21T09:28:56;10.23;;;4.30;;
3712;SDS011;1872;51.406;6.856;2024-02-21T09:31:22;10.83;;;5.33;;
3712;SDS011;1872;51.406;6.856;2024-02-21T09:33:48;5.47;;;4.20;;
3712;SDS011;1872;51.406;6.856;2024-02-21T09:36:14;10.33;;;5.80;;
3712;SDS011;1872;51.406;6.856;2024-02-21T09:38:40;5.00;;;4.20;;
3712;SDS011;1872;51.406;6.856;2024-02-21T09:41:16;4.90;;;3.93;;
3712;SDS011;1872;51.406;6.856;2024-02-21T09:43:45;8.20;;;4.10;;
3712;SDS011;1872;51.406;6.856;2024-02-21T09:46:15;7.97;;;4.73;;
3712;SDS011;1872;51.406;6.856;2024-02-21T09:48:58;10.53;;;4.73;;
3712;SDS011;1872;51.406;6.856;2024-02-21T09:51:38;13.40;;;6.13;;
3712;SDS011;1872;51.406;6.856;2024-02-21T09:54:05;6.77;;;4.10;;
3712;SDS011;1872;51.406;6.856;2024-02-21T09:56:32;5.03;;;4.30;;
3712;SDS011;1872;51.406;6.856;2024-02-21T09:58:58;6.27;;;4.80;;
3712;SDS011;1872;51.406;6.856;2024-02-21T10:01:24;7.53;;;4.50;;
3712;SDS011;1872;51.406;6.856;2024-02-21T10:03:49;5.80;;;4.10;;
3712;SDS011;1872;51.406;6.856;2024-02-21T10:06:15;8.57;;;5.33;;
3712;SDS011;1872;51.406;6.856;2024-02-21T10:08:41;7.47;;;4.67;;
3712;SDS011;1872;51.406;6.856;2024-02-21T10:11:06;5.00;;;4.50;;
3712;SDS011;1872;51.406;6.856;2024-02-21T10:13:34;7.13;;;4.90;;
3712;SDS011;1872;51.406;6.856;2024-02-21T10:16:06;11.43;;;5.20;;
3712;SDS011;1872;51.406;6.856;2024-02-21T10:18:35;6.07;;;4.10;;
3712;SDS011;1872;51.406;6.856;2024-02-21T10:21:03;8.13;;;4.23;;
3712;SDS011;1872;51.406;6.856;2024-02-21T10:23:40;8.63;;;4.30;;
3712;SDS011;1872;51.406;6.856;2024-02-21T10:26:13;9.87;;;4.67;;
3712;SDS011;1872;51.406;6.856;2024-02-21T10:28:39;5.03;;;4.27;;
3712;SDS011;1872;51.406;6.856;2024-02-21T10:31:10;6.33;;;4.83;;
3712;SDS011;1872;51.406;6.856;2024-02-21T10:33:39;9.03;;;4.30;;
3712;SDS011;1872;51.406;6.856;2024-02-21T10:36:08;4.03;;;3.60;;
3712;SDS011;1872;51.406;6.856;2024-02-21T10:38:38;6.00;;;3.90;;
3712;SDS011;1872;51.406;6.856;2024-02-21T10:41:07;9.40;;;4.67;;
3712;SDS011;1872;51.406;6.856;2024-02-21T10:43:37;10.47;;;4.40;;
3712;SDS011;1872;51.406;6.856;2024-02-21T10:46:05;5.30;;;4.13;;
3712;SDS011;1872;51.406;6.856;2024-02-21T10:48:43;7.73;;;3.97;;
3712;SDS011;1872;51.406;6.856;2024-02-21T10:56:26;6.07;;;4.07;;
3712;SDS011;1872;51.406;6.856;2024-02-21T10:58:55;5.63;;;4.63;;
3712;SDS011;1872;51.406;6.856;2024-02-21T11:01:25;7.33;;;4.80;;
3712;SDS011;1872;51.406;6.856;2024-02-21T11:03:54;5.73;;;4.87;;
3712;SDS011;1872;51.406;6.856;2024-02-21T11:06:22;5.60;;;4.67;;
3712;SDS011;1872;51.406;6.856;2024-02-21T11:08:58;7.33;;;4.17;;
3712;SDS011;1872;51.406;6.856;2024-02-21T11:11:28;6.97;;;4.60;;
3712;SDS011;1872;51.406;6.856;2024-02-21T11:14:05;4.97;;;4.43;;
3712;SDS011;1872;51.406;6.856;2024-02-21T11:16:38;5.63;;;4.60;;
3712;SDS011;1872;51.406;6.856;2024-02-21T11:19:05;4.77;;;4.30;;
3712;SDS011;1872;51.406;6.856;2024-02-21T11:21:43;11.07;;;4.97;;
3712;SDS011;1872;51.406;6.856;2024-02-21T11:24:09;4.77;;;4.30;;
3712;SDS011;1872;51.406;6.856;2024-02-21T11:26:36;10.20;;;4.47;;
3712;SDS011;1872;51.406;6.856;2024-02-21T11:29:03;6.10;;;4.00;;
3712;SDS011;1872;51.406;6.856;2024-02-21T11:31:43;10.10;;;4.20;;
3712;SDS011;1872;51.406;6.856;2024-02-21T11:34:11;6.13;;;4.00;;
3712;SDS011;1872;51.406;6.856;2024-02-21T11:36:50;5.40;;;4.90;;
3712;SDS011;1872;51.406;6.856;2024-02-21T11:39:24;8.47;;;5.10;;
3712;SDS011;1872;51.406;6.856;2024-02-21T11:44:29;6.80;;;4.90;;
3712;SDS011;1872;51.406;6.856;2024-02-21T11:46:55;9.10;;;4.70;;
3712;SDS011;1872;51.406;6.856;2024-02-21T11:49:20;5.80;;;4.70;;
3712;SDS011;1872;51.406;6.856;2024-02-21T11:51:46;7.47;;;5.10;;
3712;SDS011;1872;51.406;6.856;2024-02-21T11:54:13;6.60;;;4.37;;
3712;SDS011;1872;51.406;6.856;2024-02-21T11:56:41;8.70;;;4.90;;
3712;SDS011;1872;51.406;6.856;2024-02-21T11:59:08;6.60;;;5.10;;
3712;SDS011;1872;51.406;6.856;2024-02-21T12:01:34;8.97;;;5.50;;
3712;SDS011;1872;51.406;6.856;2024-02-21T12:04:00;7.70;;;5.17;;
3712;SDS011;1872;51.406;6.856;2024-02-21T12:06:25;8.17;;;5.03;;
3712;SDS011;1872;51.406;6.856;2024-02-21T12:08:51;5.87;;;4.40;;
3712;SDS011;1872;51.406;6.856;2024-02-21T12:11:21;12.27;;;4.97;;
3712;SDS011;1872;51.406;6.856;2024-02-21T12:14:03;6.57;;;4.50;;
3712;SDS011;1872;51.406;6.856;2024-02-21T12:16:33;7.00;;;4.87;;
3712;SDS011;1872;51.406;6.856;2024-02-21T12:19:02;8.53;;;5.63;;
3712;SDS011;1872;51.406;6.856;2024-02-21T12:21:35;6.33;;;4.07;;
3712;SDS011;1872;51.406;6.856;2024-02-21T12:26:48;8.67;;;4.67;;
3712;SDS011;1872;51.406;6.856;2024-02-21T12:29:14;11.10;;;5.23;;
3712;SDS011;1872;51.406;6.856;2024-02-21T12:31:40;4.33;;;3.93;;
3712;SDS011;1872;51.406;6.856;2024-02-21T12:34:06;5.27;;;4.17;;
3712;SDS011;1872;51.406;6.856;2024-02-21T12:36:35;8.13;;;4.80;;
3712;SDS011;1872;51.406;6.856;2024-02-21T12:39:08;6.63;;;4.60;;
3712;SDS011;1872;51.406;6.856;2024-02-21T12:41:35;9.00;;;5.17;;
3712;SDS011;1872;51.406;6.856;2024-02-21T12:44:03;11.00;;;4.50;;
3712;SDS011;1872;51.406;6.856;2024-02-21T12:46:31;5.87;;;4.40;;
3712;SDS011;1872;51.406;6.856;2024-02-21T12:49:00;5.03;;;4.23;;
3712;SDS011;1872;51.406;6.856;2024-02-21T12:51:26;7.20;;;4.40;;
3712;SDS011;1872;51.406;6.856;2024-02-21T12:53:52;7.90;;;4.33;;
3712;SDS011;1872;51.406;6.856;2024-02-21T12:56:18;5.50;;;3.80;;
3712;SDS011;1872;51.406;6.856;2024-02-21T12:58:44;7.73;;;4.30;;
3712;SDS011;1872;51.406;6.856;2024-02-21T13:01:09;4.53;;;3.50;;
3712;SDS011;1872;51.406;6.856;2024-02-21T13:03:35;8.67;;;4.47;;
3712;SDS011;1872;51.406;6.856;2024-02-21T13:06:03;5.70;;;4.30;;
3712;SDS011;1872;51.406;6.856;2024-02-21T13:08:29;4.50;;;4.03;;
3712;SDS011;1872;51.406;6.856;2024-02-21T13:10:54;6.20;;;4.53;;
3712;SDS011;1872;51.406;6.856;2024-02-21T13:13:20;7.50;;;4.27;;
3712;SDS011;1872;51.406;6.856;2024-02-21T13:15:46;8.60;;;4.73;;
3712;SDS011;1872;51.406;6.856;2024-02-21T13:18:12;6.10;;;4.37;;
3712;SDS011;1872;51.406;6.856;2024-02-21T13:20:37;4.60;;;4.00;;
3712;SDS011;1872;51.406;6.856;2024-02-21T13:23:03;6.67;;;4.03;;
3712;SDS011;1872;51.406;6.856;2024-02-21T13:25:29;7.23;;;4.20;;
3712;SDS011;1872;51.406;6.856;2024-02-21T13:27:55;7.43;;;3.70;;
3712;SDS011;1872;51.406;6.856;2024-02-21T13:30:21;6.20;;;3.70;;
3712;SDS011;1872;51.406;6.856;2024-02-21T13:32:48;8.43;;;4.33;;
3712;SDS011;1872;51.406;6.856;2024-02-21T13:35:14;4.93;;;4.30;;
3712;SDS011;1872;51.406;6.856;2024-02-21T13:37:40;5.53;;;3.90;;
3712;SDS011;1872;51.406;6.856;2024-02-21T13:40:06;6.40;;;4.17;;
3712;SDS011;1872;51.406;6.856;2024-02-21T13:42:36;6.97;;;3.50;;
3712;SDS011;1872;51.406;6.856;2024-02-21T13:45:03;5.70;;;4.73;;
3712;SDS011;1872;51.406;6.856;2024-02-21T13:47:30;6.83;;;4.80;;
3712;SDS011;1872;51.406;6.856;2024-02-21T13:49:56;7.87;;;4.40;;
3712;SDS011;1872;51.406;6.856;2024-02-21T13:52:22;6.13;;;4.20;;
3712;SDS011;1872;51.406;6.856;2024-02-21T13:54:51;6.13;;;4.03;;
3712;SDS011;1872;51.406;6.856;2024-02-21T13:57:19;4.67;;;4.27;;
3712;SDS011;1872;51.406;6.856;2024-02-21T13:59:45;6.90;;;3.90;;
3712;SDS011;1872;51.406;6.856;2024-02-21T14:02:11;8.13;;;4.80;;
3712;SDS011;1872;51.406;6.856;2024-02-21T14:04:37;4.77;;;4.33;;
3712;SDS011;1872;51.406;6.856;2024-02-21T14:07:03;5.67;;;4.57;;
3712;SDS011;1872;51.406;6.856;2024-02-21T14:09:29;9.47;;;5.40;;
3712;SDS011;1872;51.406;6.856;2024-02-21T14:11:54;6.57;;;4.23;;
3712;SDS011;1872;51.406;6.856;2024-02-21T14:14:20;8.73;;;5.30;;
3712;SDS011;1872;51.406;6.856;2024-02-21T14:16:46;5.73;;;4.50;;
3712;SDS011;1872;51.406;6.856;2024-02-21T14:19:13;9.70;;;4.80;;
3712;SDS011;1872;51.406;6.856;2024-02-21T14:21:39;6.43;;;4.43;;
3712;SDS011;1872;51.406;6.856;2024-02-21T14:24:05;7.93;;;4.50;;
3712;SDS011;1872;51.406;6.856;2024-02-21T14:26:31;7.00;;;4.90;;
3712;SDS011;1872;51.406;6.856;2024-02-21T14:28:57;9.30;;;5.00;;
3712;SDS011;1872;51.406;6.856;2024-02-21T14:31:23;5.50;;;4.20;;
3712;SDS011;1872;51.406;6.856;2024-02-21T14:33:50;5.30;;;4.33;;
3712;SDS011;1872;51.406;6.856;2024-02-21T14:36:16;8.47;;;4.40;;
3712;SDS011;1872;51.406;6.856;2024-02-21T14:38:42;5.53;;;4.53;;
3712;SDS011;1872;51.406;6.856;2024-02-21T14:41:09;9.83;;;4.50;;
3712;SDS011;1872;51.406;6.856;2024-02-21T14:43:37;4.97;;;4.17;;
3712;SDS011;1872;51.406;6.856;2024-02-21T14:46:03;6.60;;;4.57;;
3712;SDS011;1872;51.406;6.856;2024-02-21T14:48:30;7.20;;;4.70;;
3712;SDS011;1872;51.406;6.856;2024-02-21T14:50:59;5.93;;;4.27;;
3712;SDS011;1872;51.406;6.856;2024-02-21T14:53:24;5.03;;;4.07;;
3712;SDS011;1872;51.406;6.856;2024-02-21T14:55:50;9.50;;;5.20;;
3712;SDS011;1872;51.406;6.856;2024-02-21T14:58:16;6.43;;;4.50;;
3712;SDS011;1872;51.406;6.856;2024-02-21T15:00:44;5.40;;;3.80;;
3712;SDS011;1872;51.406;6.856;2024-02-21T15:03:10;10.90;;;4.23;;
3712;SDS011;1872;51.406;6.856;2024-02-21T15:05:35;6.10;;;4.53;;
3712;SDS011;1872;51.406;6.856;2024-02-21T15:08:04;4.57;;;3.57;;
3712;SDS011;1872;51.406;6.856;2024-02-21T15:10:30;5.30;;;4.03;;
3712;SDS011;1872;51.406;6.856;2024-02-21T15:12:56;4.80;;;4.30;;
3712;SDS011;1872;51.406;6.856;2024-02-21T15:15:22;5.97;;;4.23;;